DNIB

Ibadan Airport

Ibadan, Nigeria
METAR DNIB 161000Z 27007KT 9999 SCT013 30/23 Q1014
Observed Flight Rules
Dec-16 @ 10:00 UTC (an hour ago) Visual Flight Rules
Wind Visibility Clouds
270° at 7 knots 10,000+ meters
  • Scattered at 1,300' AGL
Temperatures Readings
Current 30°C / 86°F
Dewpoint 23°C / 73°F
Humidity 66%
Altimeter 29.94" Hg
Pressure 1014 hPa
Elevation 228
METAR DNIB 161000Z 27007KT 9999 SCT013 30/23 Q1014
Observed Flight Rules
Dec-16 @ 10:00 UTC
(an hour ago)
VFR
Wind Visibility
270° at 7 knots 10,000+ meters
Clouds
  • Scattered at 1,300' AGL
Temperature Dewpoint
30°C / 86°F 23°C / 73°F
Humidity Altimeter Pressure
66% 29.94" Hg 1014 hPa